sensor_id;sensor_type;location;lat;lon;timestamp;pressure;altitude;pressure_sealevel;temperature;humidity
38612;BME280;24368;52.156;20.788;2022-08-11T00:04:55;101359.80;;;15.38;94.28
38612;BME280;24368;52.156;20.788;2022-08-11T00:09:58;101360.44;;;15.40;94.15
38612;BME280;24368;52.156;20.788;2022-08-11T00:14:59;101358.58;;;15.32;94.03
38612;BME280;24368;52.156;20.788;2022-08-11T00:20:04;101357.63;;;15.28;94.04
38612;BME280;24368;52.156;20.788;2022-08-11T00:25:14;101360.54;;;15.22;94.58
38612;BME280;24368;52.156;20.788;2022-08-11T00:30:16;101359.24;;;15.24;94.04
38612;BME280;24368;52.156;20.788;2022-08-11T00:35:19;101360.61;;;15.27;93.63
38612;BME280;24368;52.156;20.788;2022-08-11T00:41:14;101353.11;;;15.24;92.72
38612;BME280;24368;52.156;20.788;2022-08-11T00:46:04;101357.70;;;15.19;91.54
38612;BME280;24368;52.156;20.788;2022-08-11T00:51:14;101361.59;;;14.95;91.91
38612;BME280;24368;52.156;20.788;2022-08-11T01:06:36;101358.55;;;14.86;93.07
38612;BME280;24368;52.156;20.788;2022-08-11T01:33:04;101360.98;;;14.57;95.08
38612;BME280;24368;52.156;20.788;2022-08-11T01:48:48;101367.50;;;14.28;96.28
38612;BME280;24368;52.156;20.788;2022-08-11T01:59:08;101363.80;;;14.29;96.19
38612;BME280;24368;52.156;20.788;2022-08-11T02:09:22;101366.90;;;14.28;95.25
38612;BME280;24368;52.156;20.788;2022-08-11T02:14:28;101367.78;;;14.26;95.20
38612;BME280;24368;52.156;20.788;2022-08-11T02:19:38;101366.48;;;14.27;94.48
38612;BME280;24368;52.156;20.788;2022-08-11T02:25:05;101365.79;;;14.04;94.64
38612;BME280;24368;52.156;20.788;2022-08-11T02:30:14;101365.89;;;13.94;95.93
38612;BME280;24368;52.156;20.788;2022-08-11T02:45:53;101365.20;;;13.92;96.54
38612;BME280;24368;52.156;20.788;2022-08-11T02:56:26;101376.58;;;13.68;98.44
38612;BME280;24368;52.156;20.788;2022-08-11T03:01:38;101377.40;;;13.72;98.08
38612;BME280;24368;52.156;20.788;2022-08-11T03:06:48;101376.70;;;13.67;97.15
38612;BME280;24368;52.156;20.788;2022-08-11T03:12:15;101375.45;;;13.69;96.48
38612;BME280;24368;52.156;20.788;2022-08-11T03:17:56;101377.52;;;13.87;95.77
38612;BME280;24368;52.156;20.788;2022-08-11T03:23:06;101378.52;;;13.95;94.81
38612;BME280;24368;52.156;20.788;2022-08-11T03:28:26;101381.77;;;14.00;94.52
38612;BME280;24368;52.156;20.788;2022-08-11T03:33:33;101384.53;;;14.01;94.35
38612;BME280;24368;52.156;20.788;2022-08-11T03:39:00;101386.19;;;14.04;94.65
38612;BME280;24368;52.156;20.788;2022-08-11T03:54:21;101389.68;;;14.18;94.64
38612;BME280;24368;52.156;20.788;2022-08-11T03:59:45;101389.73;;;14.25;94.50
38612;BME280;24368;52.156;20.788;2022-08-11T04:26:46;101390.88;;;14.70;92.91
38612;BME280;24368;52.156;20.788;2022-08-11T04:37:35;101392.20;;;14.94;91.80
38612;BME280;24368;52.156;20.788;2022-08-11T04:43:04;101393.14;;;15.04;91.35
38612;BME280;24368;52.156;20.788;2022-08-11T04:54:10;101392.36;;;15.22;90.23
38612;BME280;24368;52.156;20.788;2022-08-11T05:05:14;101400.56;;;15.25;90.73
38612;BME280;24368;52.156;20.788;2022-08-11T05:15:35;101397.96;;;15.39;90.84
38612;BME280;24368;52.156;20.788;2022-08-11T05:20:56;101397.66;;;15.55;90.19
38612;BME280;24368;52.156;20.788;2022-08-11T05:26:17;101393.39;;;15.75;89.51
38612;BME280;24368;52.156;20.788;2022-08-11T05:31:40;101394.47;;;15.95;88.60
38612;BME280;24368;52.156;20.788;2022-08-11T05:37:05;101401.73;;;16.10;87.91
38612;BME280;24368;52.156;20.788;2022-08-11T05:42:07;101398.98;;;16.18;87.58
38612;BME280;24368;52.156;20.788;2022-08-11T05:47:28;101399.52;;;16.26;86.61
38612;BME280;24368;52.156;20.788;2022-08-11T05:52:49;101402.06;;;16.33;86.14
38612;BME280;24368;52.156;20.788;2022-08-11T05:58:10;101401.73;;;16.35;86.00
38612;BME280;24368;52.156;20.788;2022-08-11T06:03:21;101397.02;;;16.38;86.12
38612;BME280;24368;52.156;20.788;2022-08-11T06:08:29;101396.30;;;16.47;85.78
38612;BME280;24368;52.156;20.788;2022-08-11T06:13:31;101398.36;;;16.53;85.56
38612;BME280;24368;52.156;20.788;2022-08-11T06:18:35;101400.77;;;16.63;84.63
38612;BME280;24368;52.156;20.788;2022-08-11T06:23:37;101396.58;;;16.77;84.46
38612;BME280;24368;52.156;20.788;2022-08-11T06:28:42;101396.10;;;16.88;83.86
38612;BME280;24368;52.156;20.788;2022-08-11T06:43:52;101395.27;;;17.50;79.08
38612;BME280;24368;52.156;20.788;2022-08-11T06:48:55;101399.69;;;17.56;79.46
38612;BME280;24368;52.156;20.788;2022-08-11T06:53:57;101394.29;;;17.58;79.77
38612;BME280;24368;52.156;20.788;2022-08-11T06:59:01;101386.00;;;17.62;80.14
38612;BME280;24368;52.156;20.788;2022-08-11T07:04:26;101382.17;;;17.69;79.45
38612;BME280;24368;52.156;20.788;2022-08-11T07:09:42;101377.84;;;17.84;79.24
38612;BME280;24368;52.156;20.788;2022-08-11T07:15:09;101372.84;;;17.96;79.44
38612;BME280;24368;52.156;20.788;2022-08-11T07:20:30;101367.95;;;18.03;79.11
38612;BME280;24368;52.156;20.788;2022-08-11T07:25:51;101368.23;;;18.10;78.24
38612;BME280;24368;52.156;20.788;2022-08-11T07:31:13;101366.86;;;18.14;78.25
38612;BME280;24368;52.156;20.788;2022-08-11T07:36:18;101367.30;;;18.27;77.73
38612;BME280;24368;52.156;20.788;2022-08-11T07:41:23;101369.33;;;18.34;77.07
38612;BME280;24368;52.156;20.788;2022-08-11T07:46:25;101367.65;;;18.45;76.77
38612;BME280;24368;52.156;20.788;2022-08-11T07:51:46;101366.79;;;18.63;75.03
38612;BME280;24368;52.156;20.788;2022-08-11T07:57:07;101370.98;;;18.65;73.39
38612;BME280;24368;52.156;20.788;2022-08-11T08:02:28;101368.98;;;18.81;74.04
38612;BME280;24368;52.156;20.788;2022-08-11T08:07:49;101364.52;;;18.96;73.51
38612;BME280;24368;52.156;20.788;2022-08-11T08:13:10;101362.13;;;19.05;72.78
38612;BME280;24368;52.156;20.788;2022-08-11T08:18:32;101363.63;;;19.22;72.11
38612;BME280;24368;52.156;20.788;2022-08-11T08:23:34;101362.96;;;19.31;71.12
38612;BME280;24368;52.156;20.788;2022-08-11T08:28:36;101357.74;;;19.62;70.72
38612;BME280;24368;52.156;20.788;2022-08-11T08:33:38;101352.25;;;19.79;69.64
38612;BME280;24368;52.156;20.788;2022-08-11T08:38:52;101355.11;;;19.91;69.13
38612;BME280;24368;52.156;20.788;2022-08-11T08:44:00;101352.63;;;19.99;68.46
38612;BME280;24368;52.156;20.788;2022-08-11T08:49:04;101353.27;;;20.01;67.90
38612;BME280;24368;52.156;20.788;2022-08-11T08:54:08;101350.77;;;19.99;68.39
38612;BME280;24368;52.156;20.788;2022-08-11T08:59:12;101343.61;;;20.05;67.64
38612;BME280;24368;52.156;20.788;2022-08-11T09:04:15;101347.55;;;20.26;66.60
38612;BME280;24368;52.156;20.788;2022-08-11T09:09:21;101344.40;;;20.49;66.24
38612;BME280;24368;52.156;20.788;2022-08-11T09:14:24;101346.80;;;20.45;65.25
38612;BME280;24368;52.156;20.788;2022-08-11T09:19:47;101343.85;;;20.72;64.90
38612;BME280;24368;52.156;20.788;2022-08-11T09:24:50;101338.69;;;20.95;64.06
38612;BME280;24368;52.156;20.788;2022-08-11T09:30:10;101339.31;;;20.76;63.72
38612;BME280;24368;52.156;20.788;2022-08-11T09:35:12;101334.86;;;20.56;63.53
38612;BME280;24368;52.156;20.788;2022-08-11T09:40:14;101332.45;;;20.76;62.59
38612;BME280;24368;52.156;20.788;2022-08-11T09:45:32;101318.97;;;21.19;61.83
38612;BME280;24368;52.156;20.788;2022-08-11T09:50:34;101319.02;;;21.29;62.15
38612;BME280;24368;52.156;20.788;2022-08-11T09:55:38;101315.23;;;21.43;61.50
38612;BME280;24368;52.156;20.788;2022-08-11T10:00:41;101313.13;;;21.77;59.38
38612;BME280;24368;52.156;20.788;2022-08-11T10:05:44;101311.01;;;21.70;59.83
38612;BME280;24368;52.156;20.788;2022-08-11T10:11:06;101303.67;;;21.72;60.57
38612;BME280;24368;52.156;20.788;2022-08-11T10:16:09;101306.73;;;21.88;58.49
38612;BME280;24368;52.156;20.788;2022-08-11T10:21:58;101296.50;;;22.25;56.56
38612;BME280;24368;52.156;20.788;2022-08-11T10:26:36;101294.66;;;22.12;57.55
38612;BME280;24368;52.156;20.788;2022-08-11T10:32:00;101287.23;;;21.97;58.12
38612;BME280;24368;52.156;20.788;2022-08-11T10:37:35;101274.42;;;21.89;58.64
38612;BME280;24368;52.156;20.788;2022-08-11T10:42:37;101264.33;;;22.41;57.60
38612;BME280;24368;52.156;20.788;2022-08-11T10:47:58;101260.52;;;22.92;55.56
38612;BME280;24368;52.156;20.788;2022-08-11T10:53:00;101252.50;;;23.16;53.23
38612;BME280;24368;52.156;20.788;2022-08-11T10:58:21;101250.55;;;23.09;53.58
38612;BME280;24368;52.156;20.788;2022-08-11T11:03:42;101243.47;;;23.14;54.67
38612;BME280;24368;52.156;20.788;2022-08-11T11:08:45;101231.77;;;23.69;54.07
38612;BME280;24368;52.156;20.788;2022-08-11T11:13:53;101218.47;;;24.19;50.22
38612;BME280;24368;52.156;20.788;2022-08-11T11:19:14;101212.89;;;24.61;50.27
38612;BME280;24368;52.156;20.788;2022-08-11T11:24:34;101207.38;;;25.04;48.80
38612;BME280;24368;52.156;20.788;2022-08-11T11:29:56;101194.17;;;25.43;47.22
38612;BME280;24368;52.156;20.788;2022-08-11T11:40:11;101197.90;;;24.64;47.92
38612;BME280;24368;52.156;20.788;2022-08-11T11:45:17;101197.00;;;23.81;49.16
38612;BME280;24368;52.156;20.788;2022-08-11T11:50:30;101193.72;;;23.29;50.55
38612;BME280;24368;52.156;20.788;2022-08-11T11:55:35;101193.73;;;22.99;52.79
38612;BME280;24368;52.156;20.788;2022-08-11T12:00:37;101187.80;;;22.83;52.97
38612;BME280;24368;52.156;20.788;2022-08-11T12:05:59;101186.73;;;22.79;51.82
38612;BME280;24368;52.156;20.788;2022-08-11T12:11:01;101182.94;;;22.98;52.31
38612;BME280;24368;52.156;20.788;2022-08-11T12:16:22;101175.52;;;23.68;52.02
38612;BME280;24368;52.156;20.788;2022-08-11T12:21:28;101175.98;;;23.31;51.53
38612;BME280;24368;52.156;20.788;2022-08-11T12:26:30;101175.19;;;22.97;53.22
38612;BME280;24368;52.156;20.788;2022-08-11T12:31:50;101174.46;;;22.79;54.02
38612;BME280;24368;52.156;20.788;2022-08-11T12:36:58;101170.27;;;22.73;54.11
38612;BME280;24368;52.156;20.788;2022-08-11T12:42:01;101164.15;;;23.09;52.70
38612;BME280;24368;52.156;20.788;2022-08-11T12:47:22;101149.20;;;23.76;51.14
38612;BME280;24368;52.156;20.788;2022-08-11T12:52:25;101138.83;;;24.06;48.98
38612;BME280;24368;52.156;20.788;2022-08-11T12:57:32;101139.75;;;24.16;48.31
38612;BME280;24368;52.156;20.788;2022-08-11T13:02:54;101164.60;;;23.34;55.54
38612;BME280;24368;52.156;20.788;2022-08-11T13:08:16;101171.83;;;21.73;67.46
38612;BME280;24368;52.156;20.788;2022-08-11T13:13:18;101164.89;;;21.00;71.47
38612;BME280;24368;52.156;20.788;2022-08-11T13:18:23;101164.27;;;20.87;79.73
38612;BME280;24368;52.156;20.788;2022-08-11T13:23:25;101162.28;;;20.94;86.88
38612;BME280;24368;52.156;20.788;2022-08-11T13:28:27;101153.73;;;21.07;90.88
38612;BME280;24368;52.156;20.788;2022-08-11T13:33:30;101147.18;;;21.15;92.45
38612;BME280;24368;52.156;20.788;2022-08-11T13:38:34;101161.79;;;21.33;91.21
38612;BME280;24368;52.156;20.788;2022-08-11T13:43:36;101165.93;;;21.34;86.42
38612;BME280;24368;52.156;20.788;2022-08-11T13:48:38;101160.02;;;21.14;83.17
38612;BME280;24368;52.156;20.788;2022-08-11T13:53:42;101166.23;;;21.20;70.85
38612;BME280;24368;52.156;20.788;2022-08-11T13:58:44;101166.20;;;21.54;66.53
38612;BME280;24368;52.156;20.788;2022-08-11T14:03:47;101166.27;;;20.92;71.14
38612;BME280;24368;52.156;20.788;2022-08-11T14:08:50;101168.09;;;20.57;72.12
38612;BME280;24368;52.156;20.788;2022-08-11T14:13:54;101171.72;;;20.76;70.87
38612;BME280;24368;52.156;20.788;2022-08-11T14:19:01;101173.81;;;20.95;71.26
38612;BME280;24368;52.156;20.788;2022-08-11T14:24:05;101174.85;;;21.26;66.03
38612;BME280;24368;52.156;20.788;2022-08-11T14:29:08;101180.73;;;21.54;63.38
38612;BME280;24368;52.156;20.788;2022-08-11T14:34:11;101180.27;;;21.46;63.28
38612;BME280;24368;52.156;20.788;2022-08-11T14:39:16;101181.85;;;21.49;64.19
38612;BME280;24368;52.156;20.788;2022-08-11T14:44:18;101178.16;;;21.16;63.08
38612;BME280;24368;52.156;20.788;2022-08-11T14:49:40;101167.98;;;21.13;63.82
38612;BME280;24368;52.156;20.788;2022-08-11T14:54:43;101167.71;;;21.02;65.80
38612;BME280;24368;52.156;20.788;2022-08-11T15:00:06;101166.73;;;20.96;66.74
38612;BME280;24368;52.156;20.788;2022-08-11T15:05:08;101159.23;;;20.89;67.92
38612;BME280;24368;52.156;20.788;2022-08-11T15:10:10;101154.63;;;20.85;67.74
38612;BME280;24368;52.156;20.788;2022-08-11T15:15:13;101149.52;;;20.82;68.51
38612;BME280;24368;52.156;20.788;2022-08-11T15:20:34;101154.87;;;20.80;70.33
38612;BME280;24368;52.156;20.788;2022-08-11T15:26:02;101153.59;;;20.80;71.87
38612;BME280;24368;52.156;20.788;2022-08-11T15:31:05;101156.64;;;20.91;71.65
38612;BME280;24368;52.156;20.788;2022-08-11T15:36:26;101153.68;;;21.14;69.35
38612;BME280;24368;52.156;20.788;2022-08-11T15:42:02;101143.55;;;21.16;67.14
38612;BME280;24368;52.156;20.788;2022-08-11T15:47:25;101144.60;;;21.02;67.76
38612;BME280;24368;52.156;20.788;2022-08-11T15:52:32;101133.88;;;21.18;69.03
38612;BME280;24368;52.156;20.788;2022-08-11T15:57:35;101128.39;;;21.31;68.67
38612;BME280;24368;52.156;20.788;2022-08-11T16:02:56;101134.05;;;21.31;67.69
38612;BME280;24368;52.156;20.788;2022-08-11T16:08:18;101137.56;;;21.25;69.29
38612;BME280;24368;52.156;20.788;2022-08-11T16:13:24;101141.94;;;21.21;69.56
38612;BME280;24368;52.156;20.788;2022-08-11T16:18:29;101134.17;;;21.18;71.11
38612;BME280;24368;52.156;20.788;2022-08-11T16:23:42;101130.41;;;21.19;70.97
38612;BME280;24368;52.156;20.788;2022-08-11T16:28:45;101127.33;;;21.08;71.02
38612;BME280;24368;52.156;20.788;2022-08-11T16:33:47;101118.77;;;21.13;70.30
38612;BME280;24368;52.156;20.788;2022-08-11T16:38:50;101126.40;;;21.17;69.54
38612;BME280;24368;52.156;20.788;2022-08-11T16:43:53;101124.23;;;21.15;70.41
38612;BME280;24368;52.156;20.788;2022-08-11T16:49:20;101124.91;;;21.10;71.80
38612;BME280;24368;52.156;20.788;2022-08-11T16:54:22;101124.01;;;21.05;72.32
38612;BME280;24368;52.156;20.788;2022-08-11T16:59:35;101118.60;;;21.03;72.56
38612;BME280;24368;52.156;20.788;2022-08-11T17:04:42;101121.41;;;21.09;72.33
38612;BME280;24368;52.156;20.788;2022-08-11T17:10:06;101126.66;;;21.09;72.58
38612;BME280;24368;52.156;20.788;2022-08-11T17:15:29;101124.70;;;21.01;72.55
38612;BME280;24368;52.156;20.788;2022-08-11T17:20:50;101121.68;;;20.83;73.78
38612;BME280;24368;52.156;20.788;2022-08-11T17:25:51;101121.17;;;20.74;72.42
38612;BME280;24368;52.156;20.788;2022-08-11T17:30:55;101118.76;;;20.70;73.18
38612;BME280;24368;52.156;20.788;2022-08-11T17:36:15;101118.15;;;20.61;74.76
38612;BME280;24368;52.156;20.788;2022-08-11T17:41:19;101123.16;;;20.55;73.75
38612;BME280;24368;52.156;20.788;2022-08-11T17:46:40;101130.27;;;20.45;73.85
38612;BME280;24368;52.156;20.788;2022-08-11T17:52:01;101133.21;;;20.27;75.47
38612;BME280;24368;52.156;20.788;2022-08-11T17:57:22;101135.25;;;20.14;78.25
38612;BME280;24368;52.156;20.788;2022-08-11T18:02:43;101140.84;;;19.97;80.03
38612;BME280;24368;52.156;20.788;2022-08-11T18:08:05;101148.55;;;19.70;81.10
38612;BME280;24368;52.156;20.788;2022-08-11T18:13:28;101144.06;;;19.56;82.70
38612;BME280;24368;52.156;20.788;2022-08-11T18:18:49;101150.96;;;19.54;82.74
38612;BME280;24368;52.156;20.788;2022-08-11T18:24:12;101155.83;;;19.38;82.97
38612;BME280;24368;52.156;20.788;2022-08-11T18:29:33;101158.41;;;19.26;84.94
38612;BME280;24368;52.156;20.788;2022-08-11T18:34:55;101161.91;;;19.17;84.46
38612;BME280;24368;52.156;20.788;2022-08-11T18:40:18;101168.17;;;19.21;85.48
38612;BME280;24368;52.156;20.788;2022-08-11T18:45:39;101189.30;;;19.33;85.80
38612;BME280;24368;52.156;20.788;2022-08-11T18:51:01;101195.89;;;19.41;85.33
38612;BME280;24368;52.156;20.788;2022-08-11T18:56:21;101185.95;;;19.51;83.79
38612;BME280;24368;52.156;20.788;2022-08-11T19:01:44;101176.81;;;19.56;82.99
38612;BME280;24368;52.156;20.788;2022-08-11T19:07:05;101174.52;;;19.48;84.46
38612;BME280;24368;52.156;20.788;2022-08-11T19:12:30;101182.38;;;19.39;85.31
38612;BME280;24368;52.156;20.788;2022-08-11T19:17:52;101185.42;;;19.38;84.97
38612;BME280;24368;52.156;20.788;2022-08-11T19:23:15;101185.99;;;19.30;85.66
38612;BME280;24368;52.156;20.788;2022-08-11T19:28:36;101182.71;;;19.23;85.78
38612;BME280;24368;52.156;20.788;2022-08-11T19:33:58;101190.18;;;19.30;85.05
38612;BME280;24368;52.156;20.788;2022-08-11T19:39:19;101184.23;;;19.11;86.98
38612;BME280;24368;52.156;20.788;2022-08-11T19:44:40;101191.91;;;19.08;87.20
38612;BME280;24368;52.156;20.788;2022-08-11T19:50:02;101189.98;;;19.13;85.49
38612;BME280;24368;52.156;20.788;2022-08-11T19:55:23;101188.27;;;19.16;85.61
38612;BME280;24368;52.156;20.788;2022-08-11T20:00:45;101189.11;;;19.15;86.60
38612;BME280;24368;52.156;20.788;2022-08-11T20:06:07;101184.61;;;19.04;87.16
38612;BME280;24368;52.156;20.788;2022-08-11T20:11:29;101178.29;;;18.91;87.18
38612;BME280;24368;52.156;20.788;2022-08-11T20:16:51;101167.53;;;18.84;87.83
38612;BME280;24368;52.156;20.788;2022-08-11T20:22:13;101168.16;;;18.88;87.71
38612;BME280;24368;52.156;20.788;2022-08-11T20:27:35;101172.26;;;18.79;87.72
38612;BME280;24368;52.156;20.788;2022-08-11T20:32:56;101166.36;;;18.61;89.83
38612;BME280;24368;52.156;20.788;2022-08-11T20:38:17;101175.59;;;18.54;91.34
38612;BME280;24368;52.156;20.788;2022-08-11T20:43:39;101176.21;;;18.46;90.50
38612;BME280;24368;52.156;20.788;2022-08-11T20:49:01;101170.12;;;18.42;90.23
38612;BME280;24368;52.156;20.788;2022-08-11T20:54:22;101169.69;;;18.42;90.95
38612;BME280;24368;52.156;20.788;2022-08-11T20:59:43;101162.08;;;18.36;90.57
38612;BME280;24368;52.156;20.788;2022-08-11T21:05:05;101162.83;;;18.30;90.91
38612;BME280;24368;52.156;20.788;2022-08-11T21:10:27;101172.40;;;18.23;91.21
38612;BME280;24368;52.156;20.788;2022-08-11T21:15:48;101173.04;;;18.16;91.21
38612;BME280;24368;52.156;20.788;2022-08-11T21:21:10;101173.06;;;18.01;91.44
38612;BME280;24368;52.156;20.788;2022-08-11T21:26:32;101171.44;;;17.96;91.42
38612;BME280;24368;52.156;20.788;2022-08-11T21:31:54;101169.54;;;17.92;92.56
38612;BME280;24368;52.156;20.788;2022-08-11T21:37:16;101171.13;;;17.83;94.04
38612;BME280;24368;52.156;20.788;2022-08-11T21:42:37;101175.76;;;17.81;93.75
38612;BME280;24368;52.156;20.788;2022-08-11T21:47:59;101179.52;;;17.92;93.46
38612;BME280;24368;52.156;20.788;2022-08-11T21:53:20;101184.61;;;17.97;93.71
38612;BME280;24368;52.156;20.788;2022-08-11T21:58:41;101188.27;;;17.97;94.32
38612;BME280;24368;52.156;20.788;2022-08-11T22:04:03;101192.11;;;18.09;93.83
38612;BME280;24368;52.156;20.788;2022-08-11T22:09:24;101187.48;;;18.21;91.82
38612;BME280;24368;52.156;20.788;2022-08-11T22:14:44;101180.23;;;18.23;91.32
38612;BME280;24368;52.156;20.788;2022-08-11T22:20:05;101179.92;;;18.23;91.94
38612;BME280;24368;52.156;20.788;2022-08-11T22:25:27;101174.72;;;18.19;91.36
38612;BME280;24368;52.156;20.788;2022-08-11T22:30:48;101183.44;;;18.26;91.59
38612;BME280;24368;52.156;20.788;2022-08-11T22:36:08;101174.45;;;18.25;92.44
38612;BME280;24368;52.156;20.788;2022-08-11T22:41:30;101169.20;;;18.15;92.71
38612;BME280;24368;52.156;20.788;2022-08-11T22:46:51;101174.94;;;18.08;93.62
38612;BME280;24368;52.156;20.788;2022-08-11T22:52:13;101172.45;;;18.09;93.81
38612;BME280;24368;52.156;20.788;2022-08-11T22:57:35;101171.10;;;18.16;93.69
38612;BME280;24368;52.156;20.788;2022-08-11T23:02:56;101172.83;;;18.27;93.07
38612;BME280;24368;52.156;20.788;2022-08-11T23:08:16;101177.83;;;18.31;90.70
38612;BME280;24368;52.156;20.788;2022-08-11T23:13:37;101176.63;;;18.31;88.35
38612;BME280;24368;52.156;20.788;2022-08-11T23:18:58;101169.86;;;18.19;90.28
38612;BME280;24368;52.156;20.788;2022-08-11T23:24:19;101169.39;;;18.08;90.85
38612;BME280;24368;52.156;20.788;2022-08-11T23:29:40;101164.95;;;18.04;90.43
38612;BME280;24368;52.156;20.788;2022-08-11T23:35:01;101166.19;;;18.07;92.32
38612;BME280;24368;52.156;20.788;2022-08-11T23:40:21;101159.90;;;17.97;93.38
38612;BME280;24368;52.156;20.788;2022-08-11T23:45:42;101158.73;;;17.87;95.32
38612;BME280;24368;52.156;20.788;2022-08-11T23:51:03;101151.36;;;17.89;94.96
38612;BME280;24368;52.156;20.788;2022-08-11T23:56:24;101149.84;;;17.87;94.86
